createdAt,value
2022-09-20T00:02:02.115Z,3.67
2022-09-20T00:04:31.552Z,6.22
2022-09-20T00:06:59.283Z,4.57
2022-09-20T00:09:27.249Z,5.75
2022-09-20T00:11:55.127Z,5.63
2022-09-20T00:14:22.868Z,4.43
2022-09-20T00:16:50.700Z,5.20
2022-09-20T00:19:20.707Z,5.95
2022-09-20T00:21:49.827Z,6.68
2022-09-20T00:24:17.951Z,7.30
2022-09-20T00:26:45.779Z,5.15
2022-09-20T00:29:13.788Z,7.10
2022-09-20T00:31:42.954Z,5.82
2022-09-20T00:34:29.809Z,4.00
2022-09-20T00:36:58.930Z,6.60
2022-09-20T00:39:27.063Z,5.20
2022-09-20T00:41:54.899Z,6.63
2022-09-20T00:44:48.518Z,3.45
2022-09-20T00:47:23.520Z,2.72
2022-09-20T00:49:54.567Z,5.97
2022-09-20T00:52:25.144Z,4.10
2022-09-20T00:57:21.010Z,11.95
2022-09-20T00:59:50.971Z,6.03
2022-09-20T01:02:22.715Z,6.55
2022-09-20T01:04:51.177Z,9.73
2022-09-20T01:07:23.297Z,4.50
2022-09-20T01:09:52.928Z,6.40
2022-09-20T01:12:23.592Z,8.27
2022-09-20T01:14:52.920Z,4.68
2022-09-20T01:17:24.013Z,5.45
2022-09-20T01:20:04.854Z,4.47
2022-09-20T01:22:43.473Z,2.40
2022-09-20T01:25:18.149Z,3.28
2022-09-20T01:27:49.605Z,4.10
2022-09-20T01:30:20.496Z,4.88
2022-09-20T01:33:08.489Z,8.57
2022-09-20T01:35:37.889Z,5.68
2022-09-20T01:38:23.920Z,5.85
2022-09-20T01:41:04.029Z,4.45
2022-09-20T01:43:37.446Z,5.53
2022-09-20T01:46:19.356Z,3.25
2022-09-20T01:48:50.052Z,6.88
2022-09-20T01:51:51.300Z,2.72
2022-09-20T01:54:41.906Z,6.32
2022-09-20T02:00:11.744Z,6.13
2022-09-20T02:03:04.774Z,3.20
2022-09-20T02:05:56.200Z,5.55
2022-09-20T02:09:03.033Z,6.95
2022-09-20T02:11:42.186Z,3.60
2022-09-20T02:14:30.727Z,5.72
2022-09-20T02:17:12.104Z,5.25
2022-09-20T02:19:55.607Z,3.80
2022-09-20T02:23:14.608Z,5.25
2022-09-20T02:26:11.980Z,8.00
2022-09-20T02:28:53.987Z,4.22
2022-09-20T02:31:43.146Z,6.05
2022-09-20T02:34:39.055Z,6.05
2022-09-20T02:37:25.611Z,8.00
2022-09-20T02:40:17.057Z,3.50
2022-09-20T02:42:51.578Z,4.20
2022-09-20T02:45:27.240Z,3.08
2022-09-20T02:48:03.116Z,3.70
2022-09-20T02:50:41.703Z,4.90
2022-09-20T02:53:26.185Z,5.07
2022-09-20T02:56:03.325Z,3.03
2022-09-20T02:58:39.929Z,4.88
2022-09-20T03:01:18.805Z,6.32
2022-09-20T03:03:55.340Z,6.18
2022-09-20T03:06:31.208Z,5.15
2022-09-20T03:09:05.701Z,4.63
2022-09-20T03:11:40.290Z,8.45
2022-09-20T03:14:15.769Z,7.47
2022-09-20T03:16:59.262Z,4.22
2022-09-20T03:19:40.229Z,3.58
2022-09-20T03:22:22.979Z,6.60
2022-09-20T03:25:05.028Z,8.13
2022-09-20T03:27:43.024Z,6.22
2022-09-20T03:30:32.481Z,5.63
2022-09-20T03:33:12.538Z,8.57
2022-09-20T03:35:53.678Z,6.88
2022-09-20T03:38:57.318Z,5.68
2022-09-20T03:41:41.791Z,15.57
2022-09-20T03:44:24.234Z,6.30
2022-09-20T03:47:04.303Z,6.22
2022-09-20T03:49:54.773Z,5.00
2022-09-20T03:52:42.456Z,7.70
2022-09-20T03:55:45.715Z,5.90
2022-09-20T03:58:23.487Z,6.00
2022-09-20T04:01:05.159Z,5.93
2022-09-20T04:03:39.753Z,5.68
2022-09-20T04:06:33.307Z,7.03
2022-09-20T04:09:36.147Z,13.23
2022-09-20T04:12:12.910Z,8.27
2022-09-20T04:19:11.596Z,9.90
2022-09-20T04:21:44.773Z,12.02
2022-09-20T04:24:20.061Z,11.13
2022-09-20T04:26:51.928Z,5.50
2022-09-20T04:29:34.743Z,12.75
2022-09-20T04:32:13.947Z,7.03
2022-09-20T04:35:04.968Z,13.82
2022-09-20T04:37:36.214Z,8.02
2022-09-20T04:40:18.855Z,10.95
2022-09-20T04:43:33.013Z,8.57
2022-09-20T04:46:45.600Z,11.68
2022-09-20T04:50:02.097Z,6.85
2022-09-20T04:53:04.850Z,6.95
2022-09-20T04:55:49.608Z,8.00
2022-09-20T04:58:46.894Z,5.97
2022-09-20T05:01:59.291Z,4.72
2022-09-20T05:05:26.902Z,7.00
2022-09-20T05:08:19.457Z,7.47
2022-09-20T05:11:11.469Z,14.20
2022-09-20T05:13:56.404Z,10.77
2022-09-20T05:16:31.987Z,6.40
2022-09-20T05:19:14.254Z,10.63
2022-09-20T05:21:58.482Z,10.25
2022-09-20T05:24:52.991Z,9.27
2022-09-20T05:27:42.295Z,13.25
2022-09-20T05:30:33.650Z,11.60
2022-09-20T05:33:12.802Z,12.93
2022-09-20T05:35:50.055Z,6.95
2022-09-20T05:38:24.945Z,9.40
2022-09-20T05:41:08.221Z,8.05
2022-09-20T05:43:44.295Z,8.40
2022-09-20T05:46:20.515Z,12.02
2022-09-20T05:48:57.461Z,11.30
2022-09-20T05:51:48.295Z,10.50
2022-09-20T05:54:44.910Z,12.23
2022-09-20T05:57:25.018Z,5.38
2022-09-20T06:00:03.396Z,15.00
2022-09-20T06:02:51.163Z,7.78
2022-09-20T06:05:31.071Z,9.65
2022-09-20T06:08:19.767Z,6.63
2022-09-20T06:11:03.939Z,11.80
2022-09-20T06:13:49.989Z,7.15
2022-09-20T06:16:29.342Z,6.13
2022-09-20T06:19:07.910Z,14.45
2022-09-20T06:21:43.034Z,9.48
2022-09-20T06:24:27.378Z,12.18
2022-09-20T06:26:57.968Z,8.10
2022-09-20T06:31:59.255Z,6.90
2022-09-20T06:34:28.777Z,7.63
2022-09-20T06:37:24.737Z,8.27
2022-09-20T06:40:16.181Z,6.00
2022-09-20T06:42:44.492Z,12.75
2022-09-20T06:45:12.512Z,6.90
2022-09-20T06:47:41.962Z,11.30
2022-09-20T06:50:16.868Z,8.43
2022-09-20T06:52:46.673Z,11.00
2022-09-20T06:55:20.192Z,8.15
2022-09-20T06:57:48.310Z,16.20
2022-09-20T07:00:17.083Z,10.65
2022-09-20T07:02:46.693Z,8.50
2022-09-20T07:05:16.097Z,9.47
2022-09-20T07:07:44.921Z,9.60
2022-09-20T07:10:12.758Z,11.38
2022-09-20T07:12:40.484Z,11.20
2022-09-20T07:15:09.615Z,14.52
2022-09-20T07:17:37.371Z,9.73
2022-09-20T07:20:07.318Z,15.52
2022-09-20T07:22:35.275Z,6.30
2022-09-20T07:25:03.472Z,18.45
2022-09-20T07:27:31.403Z,8.98
2022-09-20T07:29:59.130Z,12.35
2022-09-20T07:32:27.159Z,9.73
2022-09-20T07:34:55.307Z,11.50
2022-09-20T07:37:24.595Z,13.68
2022-09-20T07:39:52.302Z,15.57
2022-09-20T07:42:20.287Z,9.07
2022-09-20T07:44:48.898Z,8.82
2022-09-20T07:47:16.650Z,12.60
2022-09-20T07:49:44.548Z,9.70
2022-09-20T07:52:12.344Z,10.00
2022-09-20T07:54:43.712Z,11.07
2022-09-20T07:57:11.445Z,8.88
2022-09-20T07:59:39.228Z,10.18
2022-09-20T08:02:07.438Z,8.65
2022-09-20T08:04:35.236Z,9.00
2022-09-20T08:07:03.060Z,9.27
2022-09-20T08:09:32.562Z,10.20
2022-09-20T08:14:05.226Z,6.75
2022-09-20T08:14:51.535Z,10.93
2022-09-20T08:17:19.546Z,10.35
2022-09-20T08:19:47.752Z,7.45
2022-09-20T08:22:15.498Z,9.57
2022-09-20T08:24:44.193Z,13.30
2022-09-20T08:27:13.338Z,8.70
2022-09-20T08:29:41.398Z,14.95
2022-09-20T08:32:10.049Z,11.88
2022-09-20T08:34:39.156Z,7.40
2022-09-20T08:37:06.920Z,8.30
2022-09-20T08:42:33.584Z,15.07
2022-09-20T08:45:06.535Z,5.67
2022-09-20T08:47:38.261Z,7.45
2022-09-20T08:50:09.543Z,9.75
2022-09-20T08:52:41.365Z,5.63
2022-09-20T08:55:16.875Z,13.90
2022-09-20T08:57:50.592Z,10.13
2022-09-20T09:00:20.230Z,8.13
2022-09-20T09:02:49.042Z,10.50
2022-09-20T09:05:34.915Z,15.18
2022-09-20T09:08:07.427Z,11.93
2022-09-20T09:10:45.365Z,4.80
2022-09-20T09:13:25.212Z,6.43
2022-09-20T09:15:57.878Z,4.82
2022-09-20T09:18:34.859Z,6.53
2022-09-20T09:21:04.939Z,8.43
2022-09-20T09:23:41.232Z,6.88
2022-09-20T09:26:17.304Z,4.90
2022-09-20T09:28:46.387Z,8.23
2022-09-20T09:31:22.661Z,6.07
2022-09-20T09:33:50.465Z,6.90
2022-09-20T09:36:23.583Z,8.27
2022-09-20T09:38:52.257Z,5.05
2022-09-20T09:41:26.356Z,5.25
2022-09-20T09:44:01.124Z,5.15
2022-09-20T09:46:32.596Z,6.30
2022-09-20T09:49:15.465Z,5.30
2022-09-20T09:52:01.582Z,4.45
2022-09-20T09:54:32.082Z,5.20
2022-09-20T09:59:52.589Z,4.57
2022-09-20T10:02:44.462Z,4.68
2022-09-20T10:05:20.150Z,6.43
2022-09-20T10:07:54.308Z,7.57
2022-09-20T10:10:28.309Z,6.70
2022-09-20T10:13:08.765Z,6.00
2022-09-20T10:15:42.931Z,4.72
2022-09-20T10:18:24.528Z,5.22
2022-09-20T10:21:04.724Z,4.18
2022-09-20T10:24:02.413Z,11.88
2022-09-20T10:27:01.382Z,7.97
2022-09-20T10:29:42.532Z,8.73
2022-09-20T10:32:27.403Z,6.22
2022-09-20T10:35:09.267Z,3.45
2022-09-20T10:37:54.189Z,6.13
2022-09-20T10:40:50.530Z,4.10
2022-09-20T10:43:34.728Z,3.45
2022-09-20T10:46:32.516Z,5.28
2022-09-20T10:49:16.095Z,8.82
2022-09-20T10:51:55.555Z,5.25
2022-09-20T10:54:38.024Z,4.78
2022-09-20T10:57:20.061Z,3.45
2022-09-20T10:59:55.528Z,5.70
2022-09-20T11:02:41.918Z,5.65
2022-09-20T11:05:24.393Z,11.27
2022-09-20T11:08:02.035Z,5.93
2022-09-20T11:10:36.146Z,6.90
2022-09-20T11:13:08.864Z,9.32
2022-09-20T11:15:43.399Z,5.25
2022-09-20T11:18:23.611Z,4.18
2022-09-20T11:20:59.736Z,5.05
2022-09-20T11:23:41.832Z,6.40
2022-09-20T11:26:16.306Z,3.85
2022-09-20T11:28:49.014Z,7.60
2022-09-20T11:31:29.201Z,7.45
2022-09-20T11:34:01.586Z,3.60
2022-09-20T11:36:39.531Z,4.38
2022-09-20T11:39:16.487Z,3.22
2022-09-20T11:41:45.433Z,4.35
2022-09-20T11:44:17.420Z,7.78
2022-09-20T11:46:52.961Z,4.93
2022-09-20T11:49:24.914Z,4.07
2022-09-20T11:52:10.317Z,2.58
2022-09-20T11:54:58.679Z,4.82
2022-09-20T11:57:26.957Z,4.47
2022-09-20T11:59:57.635Z,5.45
2022-09-20T12:02:37.716Z,3.65
2022-09-20T12:05:07.381Z,7.32
2022-09-20T12:07:39.655Z,9.60
2022-09-20T12:10:22.827Z,2.92
2022-09-20T12:12:56.538Z,2.75
2022-09-20T12:15:27.790Z,3.03
2022-09-20T12:18:27.620Z,5.22
2022-09-20T12:21:15.372Z,2.43
2022-09-20T12:24:23.892Z,6.22
2022-09-20T12:26:57.472Z,4.97
2022-09-20T12:29:55.054Z,4.47
2022-09-20T12:32:45.556Z,6.35
2022-09-20T12:35:53.152Z,4.43
2022-09-20T12:38:38.800Z,5.93
2022-09-20T12:41:15.097Z,2.10
2022-09-20T12:43:56.913Z,5.40
2022-09-20T12:46:34.945Z,3.85
2022-09-20T12:49:55.019Z,3.80
2022-09-20T12:52:57.051Z,5.22
2022-09-20T12:55:52.815Z,8.05
2022-09-20T12:58:29.644Z,6.10
2022-09-20T13:01:30.991Z,5.55
2022-09-20T13:04:36.640Z,7.25
2022-09-20T13:07:43.746Z,4.43
2022-09-20T13:10:37.569Z,2.78
2022-09-20T13:13:30.423Z,1.48
2022-09-20T13:15:59.920Z,6.20
2022-09-20T13:18:29.513Z,5.20
2022-09-20T13:21:02.656Z,6.05
2022-09-20T13:23:32.176Z,5.22
2022-09-20T13:26:02.263Z,5.63
2022-09-20T13:28:40.753Z,3.38
2022-09-20T13:31:24.556Z,2.10
2022-09-20T13:33:53.147Z,4.28
2022-09-20T13:36:28.174Z,5.65
2022-09-20T13:38:57.992Z,4.18
2022-09-20T13:41:29.371Z,2.25
2022-09-20T13:43:58.766Z,4.75
2022-09-20T13:46:32.831Z,4.07
2022-09-20T13:49:20.947Z,5.03
2022-09-20T13:51:49.812Z,2.60
2022-09-20T13:54:27.559Z,6.72
2022-09-20T13:56:58.880Z,2.03
2022-09-20T13:59:34.073Z,2.55
2022-09-20T14:02:02.322Z,3.17
2022-09-20T14:04:32.486Z,2.55
2022-09-20T14:07:01.308Z,2.22
2022-09-20T14:09:33.895Z,1.38
2022-09-20T14:12:04.428Z,4.50
2022-09-20T14:17:06.630Z,2.53
2022-09-20T14:19:40.553Z,3.30
2022-09-20T14:22:24.214Z,4.10
2022-09-20T14:25:01.897Z,3.40
2022-09-20T14:27:31.494Z,3.08
2022-09-20T14:30:00.830Z,3.70
2022-09-20T14:32:48.077Z,4.18
2022-09-20T14:35:18.369Z,2.10
2022-09-20T14:37:49.595Z,4.75
2022-09-20T14:40:24.402Z,1.40
2022-09-20T14:42:55.703Z,4.35
2022-09-20T14:45:28.899Z,3.25
2022-09-20T14:48:11.120Z,2.22
2022-09-20T14:50:42.137Z,7.25
2022-09-20T14:56:01.530Z,4.25
2022-09-20T14:58:29.560Z,5.82
2022-09-20T15:01:05.150Z,4.93
2022-09-20T15:03:35.213Z,4.63
2022-09-20T15:06:04.190Z,3.58
2022-09-20T15:08:32.102Z,2.50
2022-09-20T15:11:00.751Z,3.92
2022-09-20T15:13:28.759Z,4.28
2022-09-20T15:15:59.297Z,4.47
2022-09-20T15:20:56.430Z,1.45
2022-09-20T15:23:24.550Z,1.80
2022-09-20T15:25:54.576Z,2.05
2022-09-20T15:28:23.059Z,2.78
2022-09-20T15:30:52.529Z,2.95
2022-09-20T15:33:23.027Z,1.38
2022-09-20T15:35:51.294Z,2.00
2022-09-20T15:38:20.173Z,3.30
2022-09-20T15:40:49.892Z,1.58
2022-09-20T15:43:21.705Z,2.95
2022-09-20T15:45:51.557Z,2.25
2022-09-20T15:48:22.228Z,3.25
2022-09-20T15:53:33.564Z,2.70
2022-09-20T15:56:02.779Z,1.85
2022-09-20T15:58:35.466Z,2.10
2022-09-20T16:01:05.990Z,3.05
2022-09-20T16:03:36.287Z,2.42
2022-09-20T16:06:06.633Z,2.17
2022-09-20T16:08:35.781Z,4.55
2022-09-20T16:11:04.178Z,3.40
2022-09-20T16:13:32.065Z,2.63
2022-09-20T16:16:01.344Z,2.90
2022-09-20T16:18:47.629Z,4.32
2022-09-20T16:21:19.153Z,2.65
2022-09-20T16:23:49.455Z,2.47
2022-09-20T16:26:18.287Z,2.30
2022-09-20T16:28:48.048Z,3.63
2022-09-20T16:31:41.066Z,3.38
2022-09-20T16:34:16.962Z,5.90
2022-09-20T16:36:47.120Z,5.10
2022-09-20T16:39:17.168Z,2.30
2022-09-20T16:41:47.923Z,3.88
2022-09-20T16:45:06.947Z,1.52
2022-09-20T16:47:41.143Z,1.67
2022-09-20T16:50:10.211Z,2.22
2022-09-20T16:52:39.798Z,1.95
2022-09-20T16:55:11.007Z,2.95
2022-09-20T16:57:40.046Z,4.13
2022-09-20T17:00:10.954Z,6.65
2022-09-20T17:02:39.495Z,3.58
2022-09-20T17:05:08.606Z,2.63
2022-09-20T17:07:37.183Z,3.88
2022-09-20T17:14:35.431Z,4.30
2022-09-20T17:17:03.540Z,5.32
2022-09-20T17:19:32.049Z,6.18
2022-09-20T17:22:00.168Z,3.22
2022-09-20T17:24:30.469Z,4.80
2022-09-20T17:26:59.057Z,5.93
2022-09-20T17:29:27.708Z,5.30
2022-09-20T17:31:59.649Z,4.90
2022-09-20T17:34:30.026Z,6.25
2022-09-20T17:36:58.033Z,4.90
2022-09-20T17:39:26.353Z,5.32
2022-09-20T17:41:54.346Z,9.02
2022-09-20T17:44:23.667Z,4.85
2022-09-20T17:46:54.056Z,5.13
2022-09-20T17:49:26.129Z,7.38
2022-09-20T17:51:55.598Z,6.53
2022-09-20T17:54:24.587Z,9.73
2022-09-20T17:56:55.934Z,10.70
2022-09-20T17:59:24.625Z,12.52
2022-09-20T18:01:54.259Z,9.70
2022-09-20T18:04:25.281Z,11.23
2022-09-20T18:06:54.875Z,10.43
2022-09-20T18:09:24.580Z,8.63
2022-09-20T18:11:54.068Z,8.27
2022-09-20T18:14:24.124Z,8.05
2022-09-20T18:16:52.827Z,11.77
2022-09-20T18:19:23.091Z,10.88
2022-09-20T18:21:52.349Z,10.25
2022-09-20T18:24:20.175Z,13.63
2022-09-20T18:26:48.239Z,7.63
2022-09-20T18:29:18.213Z,9.18
2022-09-20T18:31:48.903Z,7.90
2022-09-20T18:34:20.861Z,6.88
2022-09-20T18:36:53.102Z,9.23
2022-09-20T18:39:23.219Z,14.05
2022-09-20T18:41:53.042Z,12.52
2022-09-20T18:44:24.154Z,9.63
2022-09-20T18:46:53.457Z,10.57
2022-09-20T18:49:21.825Z,14.50
2022-09-20T18:51:50.337Z,9.82
2022-09-20T18:54:18.975Z,8.07
2022-09-20T18:56:50.771Z,8.02
2022-09-20T18:59:20.422Z,6.43
2022-09-20T19:02:18.426Z,4.87
2022-09-20T19:05:18.611Z,4.40
2022-09-20T19:07:59.613Z,4.78
2022-09-20T19:10:39.086Z,3.22
2022-09-20T19:13:24.021Z,4.88
2022-09-20T19:16:04.816Z,5.38
2022-09-20T19:18:56.348Z,3.28
2022-09-20T19:21:32.553Z,5.82
2022-09-20T19:24:12.660Z,3.95
2022-09-20T19:26:42.495Z,6.70
2022-09-20T19:29:20.120Z,5.68
2022-09-20T19:31:49.608Z,5.47
2022-09-20T19:34:21.411Z,3.35
2022-09-20T19:37:02.829Z,2.92
2022-09-20T19:39:41.471Z,6.30
2022-09-20T19:42:19.738Z,6.35
2022-09-20T19:44:59.048Z,4.72
2022-09-20T19:47:37.962Z,8.77
2022-09-20T19:50:16.507Z,3.85
2022-09-20T19:52:45.977Z,4.07
2022-09-20T19:55:15.226Z,6.72
2022-09-20T19:57:46.937Z,7.00
2022-09-20T20:00:19.317Z,6.50
2022-09-20T20:02:48.467Z,9.60
2022-09-20T20:05:19.125Z,10.50
2022-09-20T20:07:53.480Z,12.23
2022-09-20T20:10:28.265Z,11.48
2022-09-20T20:13:01.054Z,14.25
2022-09-20T20:15:45.894Z,7.65
2022-09-20T20:18:23.610Z,17.92
2022-09-20T20:20:53.637Z,9.88
2022-09-20T20:23:53.555Z,10.30
2022-09-20T20:26:23.767Z,5.80
2022-09-20T20:28:52.741Z,5.40
2022-09-20T20:31:23.003Z,5.28
2022-09-20T20:33:50.913Z,7.32
2022-09-20T20:36:18.920Z,4.78
2022-09-20T20:38:50.060Z,5.82
2022-09-20T20:41:21.279Z,7.75
2022-09-20T20:43:53.605Z,11.20
2022-09-20T20:46:23.277Z,15.32
2022-09-20T20:48:51.712Z,14.95
2022-09-20T20:51:21.154Z,12.02
2022-09-20T20:53:50.744Z,10.65
2022-09-20T20:56:21.111Z,12.10
2022-09-20T20:58:49.918Z,11.77
2022-09-20T21:01:20.719Z,12.95
2022-09-20T21:03:51.731Z,10.77
2022-09-20T21:06:20.554Z,13.85
2022-09-20T21:08:49.987Z,10.75
2022-09-20T21:11:20.416Z,12.20
2022-09-20T21:13:48.921Z,11.85
2022-09-20T21:16:18.928Z,13.20
2022-09-20T21:18:48.697Z,26.65
2022-09-20T21:21:19.962Z,20.15
2022-09-20T21:23:49.535Z,14.65
2022-09-20T21:26:18.022Z,16.55
2022-09-20T21:28:51.054Z,18.58
2022-09-20T21:31:20.571Z,20.02
2022-09-20T21:33:48.657Z,16.80
2022-09-20T21:36:19.210Z,22.20
2022-09-20T21:38:47.731Z,15.30
2022-09-20T21:41:17.733Z,17.27
2022-09-20T21:43:48.750Z,14.73
2022-09-20T21:46:18.965Z,33.03
2022-09-20T21:48:48.399Z,14.65
2022-09-20T21:51:20.388Z,14.30
2022-09-20T21:53:49.233Z,13.82
2022-09-20T21:56:18.488Z,17.33
2022-09-20T21:58:46.931Z,12.77
2022-09-20T22:01:17.573Z,12.77
2022-09-20T22:03:47.417Z,8.73
2022-09-20T22:06:18.735Z,6.95
2022-09-20T22:08:48.318Z,8.35
2022-09-20T22:11:17.625Z,6.28
2022-09-20T22:13:47.137Z,8.77
2022-09-20T22:16:17.062Z,15.85
2022-09-20T22:18:46.097Z,8.65
2022-09-20T22:21:16.740Z,12.43
2022-09-20T22:23:49.311Z,12.05
2022-09-20T22:26:19.100Z,10.60
2022-09-20T22:28:49.901Z,9.27
2022-09-20T22:31:20.195Z,8.50
2022-09-20T22:33:50.253Z,8.80
2022-09-20T22:36:20.352Z,6.30
2022-09-20T22:38:49.910Z,5.80
2022-09-20T22:41:19.509Z,7.80
2022-09-20T22:43:47.495Z,4.53
2022-09-20T22:46:17.092Z,4.78
2022-09-20T22:48:45.500Z,5.33
2022-09-20T22:51:14.930Z,6.20
2022-09-20T22:53:43.405Z,5.75
2022-09-20T22:56:14.815Z,8.50
2022-09-20T22:58:44.602Z,4.93
2022-09-20T23:01:14.028Z,6.43
2022-09-20T23:03:44.788Z,6.35
2022-09-20T23:06:14.334Z,7.28
2022-09-20T23:08:42.197Z,6.57
2022-09-20T23:11:10.380Z,8.30
2022-09-20T23:13:39.737Z,6.38
2022-09-20T23:16:15.599Z,7.38
2022-09-20T23:18:43.458Z,6.72
2022-09-20T23:21:11.313Z,5.00
2022-09-20T23:23:39.949Z,5.80
2022-09-20T23:26:09.816Z,5.57
2022-09-20T23:28:41.770Z,4.35
2022-09-20T23:31:11.165Z,4.47
2022-09-20T23:33:43.542Z,9.50
2022-09-20T23:36:13.988Z,6.55
2022-09-20T23:38:41.786Z,5.05
2022-09-20T23:41:11.785Z,8.43
2022-09-20T23:43:41.978Z,6.25
2022-09-20T23:46:11.009Z,5.32
2022-09-20T23:48:41.384Z,7.30
2022-09-20T23:51:10.550Z,8.23
2022-09-20T23:53:39.283Z,5.57
2022-09-20T23:56:07.714Z,7.80
2022-09-20T23:58:38.449Z,3.63
